sensor_id;sensor_type;location;lat;lon;timestamp;P1;durP1;ratioP1;P2;durP2;ratioP2
5672;SDS011;2859;52.474;13.324;2022-12-29T00:02:04;156.05;;;126.85;;
5672;SDS011;2859;52.474;13.324;2022-12-29T00:04:30;151.80;;;124.80;;
5672;SDS011;2859;52.474;13.324;2022-12-29T00:06:55;157.02;;;126.20;;
5672;SDS011;2859;52.474;13.324;2022-12-29T00:09:21;151.60;;;124.50;;
5672;SDS011;2859;52.474;13.324;2022-12-29T00:11:46;137.50;;;118.00;;
5672;SDS011;2859;52.474;13.324;2022-12-29T00:14:12;141.70;;;120.15;;
5672;SDS011;2859;52.474;13.324;2022-12-29T00:16:56;147.02;;;119.18;;
5672;SDS011;2859;52.474;13.324;2022-12-29T00:19:22;145.85;;;120.85;;
5672;SDS011;2859;52.474;13.324;2022-12-29T00:22:08;138.05;;;117.78;;
5672;SDS011;2859;52.474;13.324;2022-12-29T00:24:53;143.52;;;119.20;;
5672;SDS011;2859;52.474;13.324;2022-12-29T00:27:18;140.90;;;119.30;;
5672;SDS011;2859;52.474;13.324;2022-12-29T00:32:46;135.27;;;112.82;;
5672;SDS011;2859;52.474;13.324;2022-12-29T00:35:36;132.00;;;113.13;;
5672;SDS011;2859;52.474;13.324;2022-12-29T00:38:04;137.25;;;119.82;;
5672;SDS011;2859;52.474;13.324;2022-12-29T00:40:49;131.93;;;113.32;;
5672;SDS011;2859;52.474;13.324;2022-12-29T00:46:17;134.13;;;110.47;;
5672;SDS011;2859;52.474;13.324;2022-12-29T00:48:42;136.32;;;115.00;;
5672;SDS011;2859;52.474;13.324;2022-12-29T00:51:26;130.57;;;110.95;;
5672;SDS011;2859;52.474;13.324;2022-12-29T00:53:51;124.78;;;108.53;;
5672;SDS011;2859;52.474;13.324;2022-12-29T00:56:17;124.45;;;108.25;;
5672;SDS011;2859;52.474;13.324;2022-12-29T00:58:42;121.30;;;108.07;;
5672;SDS011;2859;52.474;13.324;2022-12-29T01:01:08;133.52;;;110.72;;
5672;SDS011;2859;52.474;13.324;2022-12-29T01:03:34;144.32;;;118.30;;
5672;SDS011;2859;52.474;13.324;2022-12-29T01:06:01;127.22;;;109.53;;
5672;SDS011;2859;52.474;13.324;2022-12-29T01:08:30;122.70;;;109.28;;
5672;SDS011;2859;52.474;13.324;2022-12-29T01:11:04;119.78;;;101.95;;
5672;SDS011;2859;52.474;13.324;2022-12-29T01:13:31;132.20;;;107.70;;
5672;SDS011;2859;52.474;13.324;2022-12-29T01:15:57;117.38;;;104.13;;
5672;SDS011;2859;52.474;13.324;2022-12-29T01:18:24;115.22;;;102.40;;
5672;SDS011;2859;52.474;13.324;2022-12-29T01:20:50;116.43;;;102.63;;
5672;SDS011;2859;52.474;13.324;2022-12-29T01:23:16;132.07;;;107.63;;
5672;SDS011;2859;52.474;13.324;2022-12-29T01:25:41;124.60;;;107.03;;
5672;SDS011;2859;52.474;13.324;2022-12-29T01:28:07;115.38;;;101.32;;
5672;SDS011;2859;52.474;13.324;2022-12-29T01:30:33;116.25;;;98.47;;
5672;SDS011;2859;52.474;13.324;2022-12-29T01:32:59;107.00;;;95.32;;
5672;SDS011;2859;52.474;13.324;2022-12-29T01:35:25;112.70;;;100.68;;
5672;SDS011;2859;52.474;13.324;2022-12-29T01:37:50;113.57;;;98.70;;
5672;SDS011;2859;52.474;13.324;2022-12-29T01:40:16;121.28;;;104.03;;
5672;SDS011;2859;52.474;13.324;2022-12-29T01:42:41;117.95;;;101.68;;
5672;SDS011;2859;52.474;13.324;2022-12-29T01:45:14;111.05;;;96.90;;
5672;SDS011;2859;52.474;13.324;2022-12-29T01:50:13;107.30;;;95.50;;
5672;SDS011;2859;52.474;13.324;2022-12-29T01:52:43;112.40;;;96.85;;
5672;SDS011;2859;52.474;13.324;2022-12-29T01:55:14;108.28;;;96.35;;
5672;SDS011;2859;52.474;13.324;2022-12-29T01:57:40;114.88;;;101.22;;
5672;SDS011;2859;52.474;13.324;2022-12-29T02:00:10;103.35;;;92.03;;
5672;SDS011;2859;52.474;13.324;2022-12-29T02:02:37;106.68;;;94.97;;
5672;SDS011;2859;52.474;13.324;2022-12-29T02:05:04;118.00;;;99.35;;
5672;SDS011;2859;52.474;13.324;2022-12-29T02:07:32;101.25;;;90.22;;
5672;SDS011;2859;52.474;13.324;2022-12-29T02:09:58;101.88;;;90.72;;
5672;SDS011;2859;52.474;13.324;2022-12-29T02:12:25;104.05;;;93.15;;
5672;SDS011;2859;52.474;13.324;2022-12-29T02:14:51;108.05;;;95.90;;
5672;SDS011;2859;52.474;13.324;2022-12-29T02:17:25;99.68;;;89.63;;
5672;SDS011;2859;52.474;13.324;2022-12-29T02:37:07;105.22;;;94.28;;
5672;SDS011;2859;52.474;13.324;2022-12-29T02:39:52;102.47;;;91.70;;
5672;SDS011;2859;52.474;13.324;2022-12-29T02:44:53;103.47;;;91.63;;
5672;SDS011;2859;52.474;13.324;2022-12-29T02:53:19;100.50;;;89.70;;
5672;SDS011;2859;52.474;13.324;2022-12-29T02:55:38;101.70;;;90.68;;
5672;SDS011;2859;52.474;13.324;2022-12-29T03:00:36;107.00;;;93.05;;
5672;SDS011;2859;52.474;13.324;2022-12-29T03:11:27;95.90;;;85.65;;
5672;SDS011;2859;52.474;13.324;2022-12-29T03:14:27;94.25;;;84.45;;
5672;SDS011;2859;52.474;13.324;2022-12-29T03:17:19;87.53;;;78.68;;
5672;SDS011;2859;52.474;13.324;2022-12-29T03:19:59;95.93;;;85.47;;
5672;SDS011;2859;52.474;13.324;2022-12-29T03:22:29;94.20;;;84.40;;
5672;SDS011;2859;52.474;13.324;2022-12-29T03:24:59;93.57;;;83.93;;
5672;SDS011;2859;52.474;13.324;2022-12-29T03:27:32;94.38;;;84.75;;
5672;SDS011;2859;52.474;13.324;2022-12-29T03:30:02;95.20;;;85.68;;
5672;SDS011;2859;52.474;13.324;2022-12-29T03:32:35;93.55;;;83.80;;
5672;SDS011;2859;52.474;13.324;2022-12-29T03:35:03;90.20;;;81.05;;
5672;SDS011;2859;52.474;13.324;2022-12-29T03:37:31;94.05;;;83.93;;
5672;SDS011;2859;52.474;13.324;2022-12-29T03:40:00;94.68;;;84.63;;
5672;SDS011;2859;52.474;13.324;2022-12-29T03:42:27;98.32;;;87.88;;
5672;SDS011;2859;52.474;13.324;2022-12-29T03:44:55;93.43;;;83.55;;
5672;SDS011;2859;52.474;13.324;2022-12-29T03:47:21;92.30;;;82.38;;
5672;SDS011;2859;52.474;13.324;2022-12-29T03:49:47;92.43;;;83.00;;
5672;SDS011;2859;52.474;13.324;2022-12-29T03:52:13;92.32;;;82.47;;
5672;SDS011;2859;52.474;13.324;2022-12-29T03:54:39;86.65;;;77.93;;
5672;SDS011;2859;52.474;13.324;2022-12-29T03:57:04;91.95;;;82.30;;
5672;SDS011;2859;52.474;13.324;2022-12-29T03:59:30;92.20;;;82.57;;
5672;SDS011;2859;52.474;13.324;2022-12-29T04:01:55;89.47;;;80.15;;
5672;SDS011;2859;52.474;13.324;2022-12-29T04:04:20;87.00;;;78.13;;
5672;SDS011;2859;52.474;13.324;2022-12-29T04:06:46;92.20;;;82.85;;
5672;SDS011;2859;52.474;13.324;2022-12-29T04:09:11;87.97;;;79.40;;
5672;SDS011;2859;52.474;13.324;2022-12-29T04:11:37;84.50;;;76.32;;
5672;SDS011;2859;52.474;13.324;2022-12-29T04:14:02;88.68;;;79.88;;
5672;SDS011;2859;52.474;13.324;2022-12-29T04:16:28;90.85;;;81.38;;
5672;SDS011;2859;52.474;13.324;2022-12-29T04:18:53;86.03;;;77.03;;
5672;SDS011;2859;52.474;13.324;2022-12-29T04:21:18;87.25;;;78.20;;
5672;SDS011;2859;52.474;13.324;2022-12-29T04:23:44;86.90;;;78.03;;
5672;SDS011;2859;52.474;13.324;2022-12-29T04:26:09;84.50;;;75.88;;
5672;SDS011;2859;52.474;13.324;2022-12-29T04:28:35;87.20;;;78.32;;
5672;SDS011;2859;52.474;13.324;2022-12-29T04:31:01;85.50;;;76.85;;
5672;SDS011;2859;52.474;13.324;2022-12-29T04:33:28;101.30;;;85.55;;
5672;SDS011;2859;52.474;13.324;2022-12-29T04:35:53;80.57;;;72.32;;
5672;SDS011;2859;52.474;13.324;2022-12-29T04:38:19;87.57;;;78.68;;
5672;SDS011;2859;52.474;13.324;2022-12-29T04:40:45;89.97;;;80.35;;
5672;SDS011;2859;52.474;13.324;2022-12-29T04:43:11;93.55;;;83.75;;
5672;SDS011;2859;52.474;13.324;2022-12-29T04:45:36;92.80;;;83.05;;
5672;SDS011;2859;52.474;13.324;2022-12-29T04:48:02;86.78;;;78.35;;
5672;SDS011;2859;52.474;13.324;2022-12-29T04:50:27;85.47;;;76.82;;
5672;SDS011;2859;52.474;13.324;2022-12-29T04:52:53;81.18;;;72.90;;
5672;SDS011;2859;52.474;13.324;2022-12-29T04:55:19;84.22;;;75.78;;
5672;SDS011;2859;52.474;13.324;2022-12-29T04:57:44;79.90;;;72.22;;
5672;SDS011;2859;52.474;13.324;2022-12-29T05:00:10;80.95;;;72.80;;
5672;SDS011;2859;52.474;13.324;2022-12-29T05:02:36;87.22;;;78.43;;
5672;SDS011;2859;52.474;13.324;2022-12-29T05:05:02;99.72;;;88.85;;
5672;SDS011;2859;52.474;13.324;2022-12-29T05:07:28;89.03;;;79.78;;
5672;SDS011;2859;52.474;13.324;2022-12-29T05:09:53;80.68;;;72.82;;
5672;SDS011;2859;52.474;13.324;2022-12-29T05:12:18;84.28;;;75.90;;
5672;SDS011;2859;52.474;13.324;2022-12-29T05:14:44;87.85;;;78.57;;
5672;SDS011;2859;52.474;13.324;2022-12-29T05:17:09;82.18;;;73.78;;
5672;SDS011;2859;52.474;13.324;2022-12-29T05:19:35;84.45;;;75.65;;
5672;SDS011;2859;52.474;13.324;2022-12-29T05:22:00;81.70;;;73.68;;
5672;SDS011;2859;52.474;13.324;2022-12-29T05:24:26;85.65;;;77.20;;
5672;SDS011;2859;52.474;13.324;2022-12-29T05:26:51;94.10;;;84.50;;
5672;SDS011;2859;52.474;13.324;2022-12-29T05:29:16;80.80;;;72.35;;
5672;SDS011;2859;52.474;13.324;2022-12-29T05:31:42;80.22;;;72.03;;
5672;SDS011;2859;52.474;13.324;2022-12-29T05:34:08;80.13;;;71.93;;
5672;SDS011;2859;52.474;13.324;2022-12-29T05:36:35;84.38;;;75.68;;
5672;SDS011;2859;52.474;13.324;2022-12-29T05:39:01;78.25;;;70.60;;
5672;SDS011;2859;52.474;13.324;2022-12-29T05:41:27;85.60;;;77.03;;
5672;SDS011;2859;52.474;13.324;2022-12-29T05:43:52;82.80;;;74.72;;
5672;SDS011;2859;52.474;13.324;2022-12-29T05:46:18;78.13;;;70.32;;
5672;SDS011;2859;52.474;13.324;2022-12-29T05:48:43;89.80;;;80.32;;
5672;SDS011;2859;52.474;13.324;2022-12-29T05:51:08;83.80;;;75.35;;
5672;SDS011;2859;52.474;13.324;2022-12-29T05:53:34;82.57;;;74.60;;
5672;SDS011;2859;52.474;13.324;2022-12-29T05:55:59;80.93;;;72.90;;
5672;SDS011;2859;52.474;13.324;2022-12-29T05:58:25;84.07;;;75.18;;
5672;SDS011;2859;52.474;13.324;2022-12-29T06:00:50;81.03;;;72.93;;
5672;SDS011;2859;52.474;13.324;2022-12-29T06:03:16;83.43;;;74.75;;
5672;SDS011;2859;52.474;13.324;2022-12-29T06:05:41;79.32;;;71.53;;
5672;SDS011;2859;52.474;13.324;2022-12-29T06:08:06;81.43;;;73.25;;
5672;SDS011;2859;52.474;13.324;2022-12-29T06:10:32;85.50;;;75.45;;
5672;SDS011;2859;52.474;13.324;2022-12-29T06:12:57;83.05;;;74.65;;
5672;SDS011;2859;52.474;13.324;2022-12-29T06:15:23;81.47;;;73.32;;
5672;SDS011;2859;52.474;13.324;2022-12-29T06:17:48;76.68;;;69.20;;
5672;SDS011;2859;52.474;13.324;2022-12-29T06:20:13;88.20;;;79.07;;
5672;SDS011;2859;52.474;13.324;2022-12-29T06:22:39;80.60;;;72.25;;
5672;SDS011;2859;52.474;13.324;2022-12-29T06:25:04;78.43;;;70.60;;
5672;SDS011;2859;52.474;13.324;2022-12-29T06:27:30;80.20;;;71.97;;
5672;SDS011;2859;52.474;13.324;2022-12-29T06:29:56;76.82;;;69.22;;
5672;SDS011;2859;52.474;13.324;2022-12-29T06:32:22;82.97;;;74.43;;
5672;SDS011;2859;52.474;13.324;2022-12-29T06:34:47;85.55;;;76.75;;
5672;SDS011;2859;52.474;13.324;2022-12-29T06:37:13;83.63;;;75.35;;
5672;SDS011;2859;52.474;13.324;2022-12-29T06:39:39;77.38;;;69.93;;
5672;SDS011;2859;52.474;13.324;2022-12-29T06:42:05;78.90;;;70.57;;
5672;SDS011;2859;52.474;13.324;2022-12-29T06:44:30;76.22;;;68.68;;
5672;SDS011;2859;52.474;13.324;2022-12-29T06:46:55;74.10;;;66.93;;
5672;SDS011;2859;52.474;13.324;2022-12-29T06:49:22;78.20;;;70.57;;
5672;SDS011;2859;52.474;13.324;2022-12-29T06:51:47;78.25;;;70.50;;
5672;SDS011;2859;52.474;13.324;2022-12-29T06:54:13;80.68;;;72.70;;
5672;SDS011;2859;52.474;13.324;2022-12-29T06:56:38;74.78;;;67.45;;
5672;SDS011;2859;52.474;13.324;2022-12-29T06:59:04;78.00;;;70.43;;
5672;SDS011;2859;52.474;13.324;2022-12-29T07:01:30;79.93;;;71.80;;
5672;SDS011;2859;52.474;13.324;2022-12-29T07:03:55;79.55;;;71.63;;
5672;SDS011;2859;52.474;13.324;2022-12-29T07:06:21;83.82;;;75.13;;
5672;SDS011;2859;52.474;13.324;2022-12-29T07:08:46;78.35;;;70.88;;
5672;SDS011;2859;52.474;13.324;2022-12-29T07:11:11;74.20;;;66.90;;
5672;SDS011;2859;52.474;13.324;2022-12-29T07:13:37;73.43;;;66.40;;
5672;SDS011;2859;52.474;13.324;2022-12-29T07:16:06;79.25;;;71.53;;
5672;SDS011;2859;52.474;13.324;2022-12-29T07:18:35;79.20;;;71.03;;
5672;SDS011;2859;52.474;13.324;2022-12-29T07:21:00;74.32;;;67.32;;
5672;SDS011;2859;52.474;13.324;2022-12-29T07:23:26;103.50;;;89.15;;
5672;SDS011;2859;52.474;13.324;2022-12-29T07:26:11;70.95;;;64.40;;
5672;SDS011;2859;52.474;13.324;2022-12-29T07:28:37;80.20;;;72.03;;
5672;SDS011;2859;52.474;13.324;2022-12-29T07:31:07;76.40;;;68.28;;
5672;SDS011;2859;52.474;13.324;2022-12-29T07:33:38;84.47;;;75.95;;
5672;SDS011;2859;52.474;13.324;2022-12-29T07:36:04;78.97;;;71.10;;
5672;SDS011;2859;52.474;13.324;2022-12-29T07:38:30;79.80;;;71.70;;
5672;SDS011;2859;52.474;13.324;2022-12-29T07:40:56;81.15;;;73.22;;
5672;SDS011;2859;52.474;13.324;2022-12-29T07:43:23;82.53;;;72.82;;
5672;SDS011;2859;52.474;13.324;2022-12-29T07:45:48;73.85;;;66.45;;
5672;SDS011;2859;52.474;13.324;2022-12-29T07:48:13;77.30;;;70.07;;
5672;SDS011;2859;52.474;13.324;2022-12-29T07:50:39;80.68;;;72.40;;
5672;SDS011;2859;52.474;13.324;2022-12-29T07:53:04;75.07;;;68.07;;
5672;SDS011;2859;52.474;13.324;2022-12-29T07:55:29;81.72;;;73.22;;
5672;SDS011;2859;52.474;13.324;2022-12-29T07:57:55;84.13;;;75.25;;
5672;SDS011;2859;52.474;13.324;2022-12-29T08:00:22;80.05;;;72.00;;
5672;SDS011;2859;52.474;13.324;2022-12-29T08:02:47;97.38;;;86.68;;
5672;SDS011;2859;52.474;13.324;2022-12-29T08:05:13;78.55;;;70.47;;
5672;SDS011;2859;52.474;13.324;2022-12-29T08:07:38;75.63;;;68.03;;
5672;SDS011;2859;52.474;13.324;2022-12-29T08:10:04;79.28;;;71.30;;
5672;SDS011;2859;52.474;13.324;2022-12-29T08:12:29;78.30;;;70.53;;
5672;SDS011;2859;52.474;13.324;2022-12-29T08:14:55;88.68;;;79.30;;
5672;SDS011;2859;52.474;13.324;2022-12-29T08:17:20;78.78;;;70.65;;
5672;SDS011;2859;52.474;13.324;2022-12-29T08:19:46;73.00;;;65.85;;
5672;SDS011;2859;52.474;13.324;2022-12-29T08:22:12;82.85;;;74.32;;
5672;SDS011;2859;52.474;13.324;2022-12-29T08:24:39;74.93;;;67.47;;
5672;SDS011;2859;52.474;13.324;2022-12-29T08:27:04;73.10;;;66.15;;
5672;SDS011;2859;52.474;13.324;2022-12-29T08:29:29;80.28;;;72.30;;
5672;SDS011;2859;52.474;13.324;2022-12-29T08:31:55;77.07;;;68.82;;
5672;SDS011;2859;52.474;13.324;2022-12-29T08:34:20;74.53;;;66.97;;
5672;SDS011;2859;52.474;13.324;2022-12-29T08:36:46;77.75;;;69.93;;
5672;SDS011;2859;52.474;13.324;2022-12-29T08:39:11;74.97;;;67.07;;
5672;SDS011;2859;52.474;13.324;2022-12-29T08:41:37;79.85;;;71.65;;
5672;SDS011;2859;52.474;13.324;2022-12-29T08:44:02;70.03;;;63.58;;
5672;SDS011;2859;52.474;13.324;2022-12-29T08:46:28;78.45;;;70.28;;
5672;SDS011;2859;52.474;13.324;2022-12-29T08:48:53;83.38;;;74.82;;
5672;SDS011;2859;52.474;13.324;2022-12-29T08:51:18;78.95;;;70.82;;
5672;SDS011;2859;52.474;13.324;2022-12-29T08:53:44;100.32;;;84.47;;
5672;SDS011;2859;52.474;13.324;2022-12-29T08:56:09;82.57;;;73.70;;
5672;SDS011;2859;52.474;13.324;2022-12-29T08:58:36;70.90;;;63.75;;
5672;SDS011;2859;52.474;13.324;2022-12-29T09:01:04;88.63;;;78.20;;
5672;SDS011;2859;52.474;13.324;2022-12-29T09:03:30;156.75;;;123.45;;
5672;SDS011;2859;52.474;13.324;2022-12-29T09:05:55;167.40;;;132.77;;
5672;SDS011;2859;52.474;13.324;2022-12-29T09:08:21;156.10;;;130.13;;
5672;SDS011;2859;52.474;13.324;2022-12-29T09:10:47;181.65;;;145.95;;
5672;SDS011;2859;52.474;13.324;2022-12-29T09:13:13;207.35;;;159.35;;
5672;SDS011;2859;52.474;13.324;2022-12-29T09:15:39;232.23;;;189.82;;
5672;SDS011;2859;52.474;13.324;2022-12-29T09:18:05;243.18;;;189.98;;
5672;SDS011;2859;52.474;13.324;2022-12-29T09:20:31;218.77;;;172.23;;
5672;SDS011;2859;52.474;13.324;2022-12-29T09:22:57;227.13;;;179.18;;
5672;SDS011;2859;52.474;13.324;2022-12-29T09:25:23;203.77;;;158.50;;
5672;SDS011;2859;52.474;13.324;2022-12-29T09:27:51;216.77;;;165.20;;
5672;SDS011;2859;52.474;13.324;2022-12-29T09:30:20;199.80;;;160.18;;
5672;SDS011;2859;52.474;13.324;2022-12-29T09:32:47;202.35;;;159.85;;
5672;SDS011;2859;52.474;13.324;2022-12-29T09:35:15;187.15;;;148.80;;
5672;SDS011;2859;52.474;13.324;2022-12-29T09:37:41;177.02;;;145.75;;
5672;SDS011;2859;52.474;13.324;2022-12-29T09:40:15;192.27;;;154.40;;
5672;SDS011;2859;52.474;13.324;2022-12-29T09:42:55;205.82;;;157.95;;
5672;SDS011;2859;52.474;13.324;2022-12-29T09:45:46;195.32;;;152.50;;
5672;SDS011;2859;52.474;13.324;2022-12-29T09:48:23;175.60;;;145.43;;
5672;SDS011;2859;52.474;13.324;2022-12-29T09:50:53;178.13;;;143.55;;
5672;SDS011;2859;52.474;13.324;2022-12-29T09:53:45;181.05;;;137.73;;
5672;SDS011;2859;52.474;13.324;2022-12-29T09:56:16;161.45;;;131.95;;
5672;SDS011;2859;52.474;13.324;2022-12-29T09:58:55;182.55;;;147.75;;
5672;SDS011;2859;52.474;13.324;2022-12-29T10:01:30;150.95;;;123.53;;
5672;SDS011;2859;52.474;13.324;2022-12-29T10:03:58;150.20;;;124.53;;
5672;SDS011;2859;52.474;13.324;2022-12-29T10:06:32;137.77;;;119.30;;
5672;SDS011;2859;52.474;13.324;2022-12-29T10:09:14;151.38;;;123.50;;
5672;SDS011;2859;52.474;13.324;2022-12-29T10:25:45;137.15;;;117.00;;
5672;SDS011;2859;52.474;13.324;2022-12-29T10:28:24;139.43;;;118.43;;
5672;SDS011;2859;52.474;13.324;2022-12-29T10:30:56;141.40;;;113.75;;
5672;SDS011;2859;52.474;13.324;2022-12-29T10:33:26;149.85;;;119.10;;
5672;SDS011;2859;52.474;13.324;2022-12-29T10:35:57;144.27;;;121.00;;
5672;SDS011;2859;52.474;13.324;2022-12-29T10:38:27;134.50;;;111.57;;
5672;SDS011;2859;52.474;13.324;2022-12-29T10:41:00;143.25;;;117.38;;
5672;SDS011;2859;52.474;13.324;2022-12-29T10:43:33;142.98;;;114.55;;
5672;SDS011;2859;52.474;13.324;2022-12-29T10:46:12;127.38;;;110.43;;
5672;SDS011;2859;52.474;13.324;2022-12-29T10:48:41;115.78;;;102.65;;
5672;SDS011;2859;52.474;13.324;2022-12-29T10:51:20;116.93;;;104.15;;
5672;SDS011;2859;52.474;13.324;2022-12-29T10:59:13;130.88;;;103.18;;
5672;SDS011;2859;52.474;13.324;2022-12-29T11:07:35;122.20;;;106.03;;
5672;SDS011;2859;52.474;13.324;2022-12-29T11:12:41;122.15;;;105.88;;
5672;SDS011;2859;52.474;13.324;2022-12-29T11:15:20;106.70;;;95.00;;
5672;SDS011;2859;52.474;13.324;2022-12-29T11:17:46;120.45;;;104.50;;
5672;SDS011;2859;52.474;13.324;2022-12-29T11:22:53;124.00;;;107.88;;
5672;SDS011;2859;52.474;13.324;2022-12-29T11:25:18;104.90;;;93.63;;
5672;SDS011;2859;52.474;13.324;2022-12-29T11:27:59;106.70;;;95.05;;
5672;SDS011;2859;52.474;13.324;2022-12-29T11:30:28;105.85;;;94.28;;
5672;SDS011;2859;52.474;13.324;2022-12-29T11:32:55;124.90;;;107.57;;
5672;SDS011;2859;52.474;13.324;2022-12-29T11:35:29;104.53;;;93.35;;
5672;SDS011;2859;52.474;13.324;2022-12-29T11:37:58;109.97;;;97.28;;
5672;SDS011;2859;52.474;13.324;2022-12-29T11:40:25;99.40;;;88.70;;
5672;SDS011;2859;52.474;13.324;2022-12-29T11:42:51;128.10;;;102.07;;
5672;SDS011;2859;52.474;13.324;2022-12-29T11:45:19;93.70;;;84.20;;
5672;SDS011;2859;52.474;13.324;2022-12-29T11:47:50;101.88;;;90.90;;
5672;SDS011;2859;52.474;13.324;2022-12-29T11:50:19;103.97;;;92.63;;
5672;SDS011;2859;52.474;13.324;2022-12-29T11:52:46;107.28;;;94.90;;
5672;SDS011;2859;52.474;13.324;2022-12-29T11:55:17;97.78;;;87.18;;
5672;SDS011;2859;52.474;13.324;2022-12-29T11:57:44;100.95;;;90.05;;
5672;SDS011;2859;52.474;13.324;2022-12-29T12:00:16;91.65;;;82.28;;
5672;SDS011;2859;52.474;13.324;2022-12-29T12:02:45;112.25;;;94.93;;
5672;SDS011;2859;52.474;13.324;2022-12-29T12:05:18;128.10;;;99.00;;
5672;SDS011;2859;52.474;13.324;2022-12-29T12:07:55;136.35;;;109.43;;
5672;SDS011;2859;52.474;13.324;2022-12-29T12:11:22;127.68;;;104.60;;
5672;SDS011;2859;52.474;13.324;2022-12-29T12:13:30;133.25;;;102.50;;
5672;SDS011;2859;52.474;13.324;2022-12-29T12:32:41;117.90;;;95.60;;
5672;SDS011;2859;52.474;13.324;2022-12-29T12:40:58;141.60;;;114.55;;
5672;SDS011;2859;52.474;13.324;2022-12-29T12:43:43;151.43;;;114.15;;
5672;SDS011;2859;52.474;13.324;2022-12-29T12:46:15;125.82;;;103.95;;
5672;SDS011;2859;52.474;13.324;2022-12-29T13:10:57;201.95;;;154.80;;
5672;SDS011;2859;52.474;13.324;2022-12-29T13:13:32;213.35;;;151.13;;
5672;SDS011;2859;52.474;13.324;2022-12-29T13:27:12;194.30;;;151.23;;
5672;SDS011;2859;52.474;13.324;2022-12-29T13:30:12;197.90;;;149.25;;
5672;SDS011;2859;52.474;13.324;2022-12-29T13:37:41;158.48;;;126.65;;
5672;SDS011;2859;52.474;13.324;2022-12-29T13:40:38;164.63;;;128.70;;
5672;SDS011;2859;52.474;13.324;2022-12-29T13:43:06;159.90;;;125.85;;
5672;SDS011;2859;52.474;13.324;2022-12-29T13:45:33;168.80;;;130.63;;
5672;SDS011;2859;52.474;13.324;2022-12-29T13:50:33;172.43;;;137.43;;
5672;SDS011;2859;52.474;13.324;2022-12-29T13:53:08;182.80;;;139.50;;
5672;SDS011;2859;52.474;13.324;2022-12-29T13:55:40;176.93;;;134.90;;
5672;SDS011;2859;52.474;13.324;2022-12-29T14:00:46;160.05;;;124.13;;
5672;SDS011;2859;52.474;13.324;2022-12-29T14:08:40;156.82;;;126.22;;
5672;SDS011;2859;52.474;13.324;2022-12-29T14:11:07;174.15;;;130.32;;
5672;SDS011;2859;52.474;13.324;2022-12-29T14:13:37;153.60;;;121.07;;
5672;SDS011;2859;52.474;13.324;2022-12-29T14:16:04;179.68;;;137.48;;
5672;SDS011;2859;52.474;13.324;2022-12-29T14:18:31;149.32;;;117.43;;
5672;SDS011;2859;52.474;13.324;2022-12-29T14:21:08;145.35;;;117.10;;
5672;SDS011;2859;52.474;13.324;2022-12-29T14:28:32;140.70;;;114.93;;
5672;SDS011;2859;52.474;13.324;2022-12-29T14:33:39;127.25;;;104.40;;
5672;SDS011;2859;52.474;13.324;2022-12-29T14:41:59;147.05;;;116.93;;
5672;SDS011;2859;52.474;13.324;2022-12-29T14:44:26;135.43;;;107.10;;
5672;SDS011;2859;52.474;13.324;2022-12-29T14:49:22;132.85;;;109.47;;
5672;SDS011;2859;52.474;13.324;2022-12-29T14:51:50;129.73;;;106.43;;
5672;SDS011;2859;52.474;13.324;2022-12-29T14:57:20;139.40;;;107.13;;
5672;SDS011;2859;52.474;13.324;2022-12-29T14:59:48;126.40;;;104.88;;
5672;SDS011;2859;52.474;13.324;2022-12-29T15:02:19;140.57;;;109.07;;
5672;SDS011;2859;52.474;13.324;2022-12-29T15:12:22;126.30;;;112.60;;
5672;SDS011;2859;52.474;13.324;2022-12-29T15:15:16;139.07;;;110.57;;
5672;SDS011;2859;52.474;13.324;2022-12-29T15:17:44;137.52;;;108.15;;
5672;SDS011;2859;52.474;13.324;2022-12-29T15:20:29;134.15;;;112.05;;
5672;SDS011;2859;52.474;13.324;2022-12-29T15:25:28;156.13;;;113.20;;
5672;SDS011;2859;52.474;13.324;2022-12-29T15:28:02;141.35;;;110.38;;
5672;SDS011;2859;52.474;13.324;2022-12-29T15:30:29;110.65;;;92.50;;
5672;SDS011;2859;52.474;13.324;2022-12-29T15:32:55;110.68;;;94.45;;
5672;SDS011;2859;52.474;13.324;2022-12-29T15:37:51;107.78;;;91.53;;
5672;SDS011;2859;52.474;13.324;2022-12-29T15:40:23;115.03;;;93.28;;
5672;SDS011;2859;52.474;13.324;2022-12-29T15:45:56;134.05;;;105.70;;
5672;SDS011;2859;52.474;13.324;2022-12-29T15:48:23;126.00;;;96.57;;
5672;SDS011;2859;52.474;13.324;2022-12-29T15:50:49;93.68;;;83.40;;
5672;SDS011;2859;52.474;13.324;2022-12-29T15:53:20;120.38;;;95.30;;
5672;SDS011;2859;52.474;13.324;2022-12-29T15:55:49;109.95;;;91.32;;
5672;SDS011;2859;52.474;13.324;2022-12-29T15:58:23;128.45;;;98.32;;
5672;SDS011;2859;52.474;13.324;2022-12-29T16:00:50;105.22;;;88.28;;
5672;SDS011;2859;52.474;13.324;2022-12-29T16:03:18;123.18;;;95.97;;
5672;SDS011;2859;52.474;13.324;2022-12-29T16:05:49;104.53;;;88.30;;
5672;SDS011;2859;52.474;13.324;2022-12-29T16:08:33;103.97;;;87.23;;
5672;SDS011;2859;52.474;13.324;2022-12-29T16:11:02;112.20;;;93.82;;
5672;SDS011;2859;52.474;13.324;2022-12-29T16:13:40;123.07;;;93.35;;
5672;SDS011;2859;52.474;13.324;2022-12-29T16:16:07;105.05;;;87.03;;
5672;SDS011;2859;52.474;13.324;2022-12-29T16:18:43;97.85;;;85.10;;
5672;SDS011;2859;52.474;13.324;2022-12-29T16:21:25;116.85;;;89.20;;
5672;SDS011;2859;52.474;13.324;2022-12-29T16:23:55;100.65;;;85.57;;
5672;SDS011;2859;52.474;13.324;2022-12-29T16:26:22;92.93;;;78.90;;
5672;SDS011;2859;52.474;13.324;2022-12-29T16:28:50;90.57;;;80.47;;
5672;SDS011;2859;52.474;13.324;2022-12-29T16:31:21;100.20;;;86.43;;
5672;SDS011;2859;52.474;13.324;2022-12-29T16:33:49;117.78;;;95.68;;
5672;SDS011;2859;52.474;13.324;2022-12-29T16:36:24;115.45;;;93.70;;
5672;SDS011;2859;52.474;13.324;2022-12-29T16:41:49;89.97;;;79.03;;
5672;SDS011;2859;52.474;13.324;2022-12-29T16:44:25;86.72;;;76.80;;
5672;SDS011;2859;52.474;13.324;2022-12-29T16:49:37;89.70;;;79.82;;
5672;SDS011;2859;52.474;13.324;2022-12-29T16:52:12;96.35;;;84.03;;
5672;SDS011;2859;52.474;13.324;2022-12-29T16:54:38;92.22;;;80.82;;
5672;SDS011;2859;52.474;13.324;2022-12-29T16:57:04;90.05;;;80.65;;
5672;SDS011;2859;52.474;13.324;2022-12-29T16:59:34;89.18;;;79.25;;
5672;SDS011;2859;52.474;13.324;2022-12-29T17:02:15;93.57;;;81.38;;
5672;SDS011;2859;52.474;13.324;2022-12-29T17:04:41;107.20;;;88.72;;
5672;SDS011;2859;52.474;13.324;2022-12-29T17:07:17;83.65;;;74.47;;
5672;SDS011;2859;52.474;13.324;2022-12-29T17:09:47;84.32;;;75.15;;
5672;SDS011;2859;52.474;13.324;2022-12-29T17:12:16;104.93;;;83.38;;
5672;SDS011;2859;52.474;13.324;2022-12-29T17:17:14;108.82;;;87.35;;
5672;SDS011;2859;52.474;13.324;2022-12-29T17:19:51;90.03;;;79.40;;
5672;SDS011;2859;52.474;13.324;2022-12-29T17:22:19;107.30;;;85.18;;
5672;SDS011;2859;52.474;13.324;2022-12-29T17:28:57;123.38;;;104.80;;
5672;SDS011;2859;52.474;13.324;2022-12-29T17:31:23;138.52;;;112.63;;
5672;SDS011;2859;52.474;13.324;2022-12-29T17:33:48;126.13;;;106.80;;
5672;SDS011;2859;52.474;13.324;2022-12-29T17:36:14;159.63;;;131.27;;
5672;SDS011;2859;52.474;13.324;2022-12-29T17:38:39;124.60;;;104.82;;
5672;SDS011;2859;52.474;13.324;2022-12-29T17:41:08;148.10;;;115.03;;
5672;SDS011;2859;52.474;13.324;2022-12-29T17:43:38;130.82;;;108.93;;
5672;SDS011;2859;52.474;13.324;2022-12-29T17:46:04;122.47;;;104.60;;
5672;SDS011;2859;52.474;13.324;2022-12-29T17:48:31;146.88;;;113.88;;